Flight Track Log - Related Links

Times and Time Zones

All times are in EDT time to prevent confusion due to time zone crossing. See the EJA277 flight status page for this flight to view local times or setup timezone preferences in your user account.

Time Position Orientation Groundspeed Altitude Reporting Facility
EDT Latitude Longitude Course Direction KTS MPH feet Rate Location/Type
Sat 04:12:20 PM 39.7000 -86.3000 237° Southwest 167 192 1,600  Level Indianapolis TRACON
Sat 04:12:56 PM 39.6833 -86.3333 237° Southwest 208 239 2,700 3,118 Climbing Indianapolis TRACON
Sat 04:14:02 PM 39.6167 -86.4000 218° Southwest 284 327 6,900 3,850 Climbing Indianapolis TRACON
Sat 04:14:56 PM 39.5500 -86.3833 169° South 284 327 10,400 3,250 Climbing Indianapolis TRACON
Sat 04:15:14 PM 39.5275 -86.3803 174° South 278 320 10,800 456 Climbing Indianapolis Center
Sat 04:16:15 PM 39.4342 -86.3658 173° South 323 372 11,000 98 Climbing Indianapolis Center
Sat 04:17:16 PM 39.3325 -86.3494 173° South 349 402 11,000  Level Indianapolis Center
Sat 04:18:18 PM 39.2297 -86.3328 173° South 366 421 11,000  Level Indianapolis Center
Sat 04:19:19 PM 39.1267 -86.3164 173° South 372 428 11,000  Level Indianapolis Center
Sat 04:20:20 PM 39.0233 -86.2989 173° South 375 432 11,000  Level Indianapolis Center
Sat 04:21:22 PM 38.8992 -86.2794 173° South 375 432 11,000 49 Level Indianapolis Center
Sat 04:22:23 PM 38.8119 -86.2664 173° South 373 429 11,100 49 Climbing Indianapolis Center
Sat 04:23:24 PM 38.7064 -86.2503 173° South 376 433 11,100 -439 Level Indianapolis Center
Sat 04:24:26 PM 38.6128 -86.2072 160° South 291 335 10,200 -1,415 Descending Indianapolis Center
Sat 04:25:27 PM 38.5722 -86.1353 126° Southeast 254 292 8,200 -1,967 Descending Indianapolis Center
Sat 04:26:28 PM 38.5314 -86.0664 127° Southeast 243 280 6,200 -1,073 Descending Indianapolis Center
Sat 04:27:30 PM 38.4931 -85.9983 126° Southeast 237 273 6,000 -780 Descending Indianapolis Center
Sat 04:28:31 PM 38.4547 -85.9300 126° Southeast 236 272 4,600 -1,415 Descending Indianapolis Center
Sat 04:29:33 PM 38.4147 -85.8606 126° Southeast 239 275 3,100 -780 Descending Indianapolis Center
Sat 04:30:34 PM 38.3733 -85.7944 129° Southeast 239 275 3,000 -49 Descending Indianapolis Center
Sat 04:31:35 PM 38.3144 -85.7739 165° South 226 260 3,000 -293 Level Indianapolis Center
Sat 04:32:37 PM 38.2697 -85.7592 166° South 194 223 2,400 -581 Descending Indianapolis Center
Sat 04:34:00 PM 38.1943 -85.7075 152° Southeast  Level FlightAware Approximate
Sat 04:41:00 PM 38.1667 -85.7333 297° West  Level FlightAware Approximate
Sat 04:42:00 PM 38.1741 -85.7365 297° West  Level Estimated

Login

Don't have an account? Register now (free) for customized features, flight alerts, and more!